createdAt,value
2022-07-28T00:01:29.380Z,35.78
2022-07-28T00:03:31.286Z,36.10
2022-07-28T00:05:33.230Z,35.77
2022-07-28T00:07:36.308Z,35.78
2022-07-28T00:09:38.567Z,35.55
2022-07-28T00:11:50.429Z,35.93
2022-07-28T00:13:56.653Z,36.47
2022-07-28T00:15:58.885Z,35.89
2022-07-28T00:18:01.132Z,36.04
2022-07-28T00:20:05.113Z,36.25
2022-07-28T00:22:07.535Z,36.00
2022-07-28T00:24:09.735Z,36.31
2022-07-28T00:26:12.588Z,36.09
2022-07-28T00:28:14.416Z,36.35
2022-07-28T00:30:16.196Z,36.65
2022-07-28T00:32:21.665Z,36.71
2022-07-28T00:34:26.580Z,36.49
2022-07-28T00:36:29.074Z,36.63
2022-07-28T00:38:30.943Z,36.05
2022-07-28T00:40:51.411Z,36.54
2022-07-28T00:42:53.088Z,36.72
2022-07-28T00:44:55.043Z,37.54
2022-07-28T00:46:56.808Z,38.11
2022-07-28T00:48:59.276Z,37.39
2022-07-28T00:51:01.216Z,38.47
2022-07-28T00:53:03.126Z,37.81
2022-07-28T00:55:07.124Z,37.88
2022-07-28T00:57:09.457Z,37.63
2022-07-28T00:59:11.400Z,37.92
2022-07-28T01:01:19.922Z,37.39
2022-07-28T01:03:22.990Z,38.49
2022-07-28T01:05:43.906Z,39.28
2022-07-28T01:07:55.460Z,40.13
2022-07-28T01:10:13.881Z,41.94
2022-07-28T01:12:34.891Z,41.14
2022-07-28T01:14:44.854Z,41.43
2022-07-28T01:16:56.870Z,41.65
2022-07-28T01:19:10.221Z,40.75
2022-07-28T01:21:15.836Z,39.73
2022-07-28T01:23:32.822Z,40.35
2022-07-28T01:25:49.936Z,39.75
2022-07-28T01:27:59.210Z,39.56
2022-07-28T01:30:29.630Z,39.55
2022-07-28T01:32:39.520Z,39.08
2022-07-28T01:34:49.562Z,39.34
2022-07-28T01:36:59.716Z,39.25
2022-07-28T01:39:02.437Z,39.04
2022-07-28T01:41:07.714Z,38.66
2022-07-28T01:43:14.438Z,38.75
2022-07-28T01:45:19.147Z,38.70
2022-07-28T01:47:22.434Z,39.03
2022-07-28T01:49:26.622Z,38.80
2022-07-28T01:51:30.558Z,38.92
2022-07-28T01:53:37.742Z,39.06
2022-07-28T01:55:43.366Z,39.26
2022-07-28T01:57:47.522Z,39.08
2022-07-28T01:59:51.194Z,39.26
2022-07-28T02:01:54.739Z,38.74
2022-07-28T02:04:00.378Z,38.91
2022-07-28T02:06:04.877Z,39.27
2022-07-28T02:08:07.862Z,39.37
2022-07-28T02:10:12.709Z,39.62
2022-07-28T02:12:18.554Z,39.82
2022-07-28T02:14:23.260Z,39.17
2022-07-28T02:16:27.622Z,39.31
2022-07-28T02:18:31.371Z,39.50
2022-07-28T02:20:33.985Z,39.48
2022-07-28T02:22:37.959Z,39.65
2022-07-28T02:24:43.380Z,40.11
2022-07-28T02:26:53.673Z,40.19
2022-07-28T02:28:59.699Z,40.48
2022-07-28T02:31:20.202Z,40.67
2022-07-28T02:33:58.133Z,39.89
2022-07-28T02:35:57.528Z,40.62
2022-07-28T02:38:05.338Z,40.21
2022-07-28T02:40:13.847Z,40.65
2022-07-28T02:42:19.888Z,40.47
2022-07-28T02:44:26.706Z,39.91
2022-07-28T02:46:43.194Z,40.88
2022-07-28T02:48:50.056Z,41.31
2022-07-28T02:50:54.874Z,40.91
2022-07-28T02:52:59.921Z,40.65
2022-07-28T02:55:03.442Z,40.82
2022-07-28T02:57:06.860Z,40.50
2022-07-28T02:59:11.553Z,40.86
2022-07-28T03:01:20.650Z,40.91
2022-07-28T03:03:23.277Z,40.92
2022-07-28T03:05:26.306Z,40.70
2022-07-28T03:07:29.822Z,40.98
2022-07-28T03:09:38.027Z,40.81
2022-07-28T03:11:53.243Z,41.76
2022-07-28T03:13:55.229Z,41.15
2022-07-28T03:15:57.145Z,41.10
2022-07-28T03:18:00.483Z,41.09
2022-07-28T03:20:02.356Z,40.89
2022-07-28T03:22:05.336Z,41.37
2022-07-28T03:24:10.669Z,41.97
2022-07-28T03:26:30.716Z,41.52
2022-07-28T03:28:33.914Z,41.48
2022-07-28T03:30:41.906Z,41.98
2022-07-28T03:32:48.330Z,42.12
2022-07-28T03:34:52.512Z,42.47
2022-07-28T03:37:03.010Z,44.10
2022-07-28T03:39:09.411Z,43.17
2022-07-28T03:41:13.297Z,42.55
2022-07-28T03:43:18.981Z,42.46
2022-07-28T03:45:21.573Z,42.90
2022-07-28T03:47:24.260Z,42.98
2022-07-28T03:49:26.150Z,43.12
2022-07-28T03:51:29.627Z,43.17
2022-07-28T03:53:31.483Z,44.07
2022-07-28T03:55:33.313Z,43.93
2022-07-28T03:57:35.689Z,43.43
2022-07-28T03:59:37.629Z,43.59
2022-07-28T04:01:40.405Z,43.32
2022-07-28T04:03:43.673Z,43.63
2022-07-28T04:05:46.916Z,43.93
2022-07-28T04:07:48.780Z,44.13
2022-07-28T04:09:50.863Z,44.33
2022-07-28T04:11:52.687Z,44.51
2022-07-28T04:13:56.289Z,44.57
2022-07-28T04:15:58.738Z,44.40
2022-07-28T04:18:00.950Z,45.20
2022-07-28T04:20:02.795Z,45.03
2022-07-28T04:22:04.611Z,44.76
2022-07-28T04:24:08.926Z,44.92
2022-07-28T04:26:11.190Z,45.19
2022-07-28T04:28:13.020Z,45.04
2022-07-28T04:30:17.542Z,46.22
2022-07-28T04:32:19.481Z,45.58
2022-07-28T04:34:21.324Z,45.43
2022-07-28T04:36:23.098Z,45.76
2022-07-28T04:38:24.898Z,45.76
2022-07-28T04:40:27.991Z,46.06
2022-07-28T04:42:29.722Z,45.48
2022-07-28T04:44:31.505Z,45.74
2022-07-28T04:46:34.817Z,45.79
2022-07-28T04:48:36.732Z,45.80
2022-07-28T04:50:40.993Z,46.32
2022-07-28T04:52:42.791Z,45.76
2022-07-28T04:54:44.595Z,46.18
2022-07-28T04:56:46.623Z,45.93
2022-07-28T04:58:48.393Z,46.22
2022-07-28T05:00:51.174Z,46.38
2022-07-28T05:02:53.795Z,46.31
2022-07-28T05:04:55.761Z,45.94
2022-07-28T05:06:57.553Z,45.54
2022-07-28T05:08:59.306Z,45.73
2022-07-28T05:11:01.574Z,45.23
2022-07-28T05:13:07.437Z,45.09
2022-07-28T05:15:09.725Z,44.69
2022-07-28T05:17:11.619Z,44.43
2022-07-28T05:19:15.375Z,44.61
2022-07-28T05:21:17.094Z,44.02
2022-07-28T05:23:25.140Z,44.28
2022-07-28T05:25:27.054Z,44.07
2022-07-28T05:27:28.850Z,43.81
2022-07-28T05:29:35.127Z,43.41
2022-07-28T05:31:48.966Z,43.43
2022-07-28T05:33:51.402Z,42.97
2022-07-28T05:35:57.524Z,42.97
2022-07-28T05:37:59.395Z,42.89
2022-07-28T05:40:03.710Z,42.56
2022-07-28T05:42:05.726Z,42.34
2022-07-28T05:44:07.495Z,41.83
2022-07-28T05:46:09.413Z,41.72
2022-07-28T05:48:11.622Z,41.49
2022-07-28T05:50:15.239Z,41.56
2022-07-28T05:52:16.951Z,41.34
2022-07-28T05:54:18.712Z,41.42
2022-07-28T05:56:22.076Z,41.62
2022-07-28T05:58:24.168Z,41.72
2022-07-28T06:00:27.248Z,41.72
2022-07-28T06:02:29.052Z,41.30
2022-07-28T06:04:31.593Z,40.85
2022-07-28T06:06:33.560Z,40.63
2022-07-28T06:08:36.325Z,40.70
2022-07-28T06:10:57.135Z,40.51
2022-07-28T06:12:58.952Z,40.04
2022-07-28T06:15:04.199Z,39.82
2022-07-28T06:17:06.109Z,39.61
2022-07-28T06:19:07.935Z,39.38
2022-07-28T06:21:09.712Z,39.68
2022-07-28T06:23:12.047Z,39.68
2022-07-28T06:25:24.261Z,39.16
2022-07-28T06:27:26.116Z,39.44
2022-07-28T06:29:27.927Z,39.46
2022-07-28T06:31:29.838Z,39.21
2022-07-28T06:33:32.129Z,38.78
2022-07-28T06:35:44.966Z,39.07
2022-07-28T06:37:53.880Z,39.04
2022-07-28T06:39:56.900Z,38.48
2022-07-28T06:41:58.757Z,38.38
2022-07-28T06:44:00.817Z,38.27
2022-07-28T06:46:03.624Z,38.01
2022-07-28T06:48:07.967Z,37.74
2022-07-28T06:50:26.373Z,37.30
2022-07-28T06:52:28.970Z,37.74
2022-07-28T06:54:30.700Z,37.49
2022-07-28T06:56:32.567Z,37.37
2022-07-28T06:58:34.466Z,36.89
2022-07-28T07:00:36.403Z,36.69
2022-07-28T07:02:40.144Z,36.61
2022-07-28T07:04:42.633Z,36.18
2022-07-28T07:06:44.730Z,36.36
2022-07-28T07:08:47.883Z,36.08
2022-07-28T07:10:49.986Z,36.11
2022-07-28T07:12:52.253Z,35.83
2022-07-28T07:14:54.206Z,35.55
2022-07-28T07:16:55.982Z,35.96
2022-07-28T07:18:57.902Z,35.28
2022-07-28T07:20:59.778Z,35.25
2022-07-28T07:23:01.903Z,35.51
2022-07-28T07:25:18.216Z,35.11
2022-07-28T07:27:19.968Z,34.18
2022-07-28T07:29:23.022Z,34.33
2022-07-28T07:31:24.841Z,34.28
2022-07-28T07:33:26.667Z,33.86
2022-07-28T07:35:28.582Z,33.85
2022-07-28T07:37:32.557Z,34.01
2022-07-28T07:39:34.474Z,33.56
2022-07-28T07:41:36.290Z,33.51
2022-07-28T07:43:43.372Z,33.36
2022-07-28T07:45:47.721Z,33.20
2022-07-28T07:47:49.568Z,33.16
2022-07-28T07:49:51.914Z,32.86
2022-07-28T07:51:53.753Z,32.58
2022-07-28T07:53:55.482Z,32.38
2022-07-28T07:55:57.898Z,32.10
2022-07-28T07:57:59.680Z,32.05
2022-07-28T08:00:01.769Z,31.92
2022-07-28T08:02:06.422Z,31.96
2022-07-28T08:04:08.484Z,31.97
2022-07-28T08:06:10.869Z,30.71
2022-07-28T08:08:13.760Z,31.08
2022-07-28T08:10:15.613Z,31.09
2022-07-28T08:12:17.512Z,30.65
2022-07-28T08:14:26.601Z,30.80
2022-07-28T08:16:28.607Z,30.56
2022-07-28T08:18:30.466Z,30.42
2022-07-28T08:20:32.916Z,30.22
2022-07-28T08:22:34.652Z,30.23
2022-07-28T08:24:36.687Z,29.71
2022-07-28T08:26:38.595Z,29.93
2022-07-28T08:28:40.340Z,29.57
2022-07-28T08:30:42.504Z,29.72
2022-07-28T08:32:44.275Z,29.14
2022-07-28T08:35:22.654Z,29.13
2022-07-28T08:37:20.276Z,29.24
2022-07-28T08:39:22.880Z,29.74
2022-07-28T08:41:36.814Z,29.17
2022-07-28T08:43:42.823Z,29.60
2022-07-28T08:45:49.631Z,29.29
2022-07-28T08:48:08.196Z,29.31
2022-07-28T08:50:13.733Z,29.01
2022-07-28T08:52:19.830Z,29.40
2022-07-28T08:54:27.154Z,29.33
2022-07-28T08:56:29.129Z,29.03
2022-07-28T08:58:35.838Z,28.92
2022-07-28T09:00:38.093Z,29.04
2022-07-28T09:02:45.854Z,28.96
2022-07-28T09:04:48.310Z,29.16
2022-07-28T09:06:50.112Z,28.94
2022-07-28T09:08:52.309Z,28.83
2022-07-28T09:10:54.518Z,28.70
2022-07-28T09:12:56.361Z,28.64
2022-07-28T09:14:58.164Z,28.86
2022-07-28T09:17:01.891Z,28.37
2022-07-28T09:19:03.772Z,28.45
2022-07-28T09:21:05.552Z,28.51
2022-07-28T09:23:41.912Z,28.53
2022-07-28T09:25:31.581Z,28.67
2022-07-28T09:27:46.733Z,28.48
2022-07-28T09:29:59.012Z,28.36
2022-07-28T09:32:01.176Z,28.37
2022-07-28T09:34:05.257Z,28.79
2022-07-28T09:36:14.706Z,27.85
2022-07-28T09:38:18.875Z,28.29
2022-07-28T09:40:22.510Z,28.25
2022-07-28T09:42:25.141Z,28.57
2022-07-28T09:44:27.957Z,28.50
2022-07-28T09:46:30.692Z,28.05
2022-07-28T09:48:33.402Z,28.40
2022-07-28T09:50:35.658Z,28.57
2022-07-28T09:52:38.616Z,27.70
2022-07-28T09:54:59.595Z,28.16
2022-07-28T09:57:01.622Z,28.28
2022-07-28T09:59:03.955Z,28.27
2022-07-28T10:01:11.596Z,28.38
2022-07-28T10:03:26.006Z,27.89
2022-07-28T10:05:40.583Z,27.52
2022-07-28T10:07:51.413Z,27.75
2022-07-28T10:09:57.673Z,28.13
2022-07-28T10:12:19.560Z,27.59
2022-07-28T10:14:32.612Z,27.98
2022-07-28T10:16:37.037Z,27.52
2022-07-28T10:18:40.637Z,27.57
2022-07-28T10:20:44.990Z,27.77
2022-07-28T10:22:46.982Z,27.97
2022-07-28T10:24:53.015Z,28.00
2022-07-28T10:26:57.201Z,28.32
2022-07-28T10:29:04.038Z,28.17
2022-07-28T10:31:11.801Z,28.21
2022-07-28T10:33:15.797Z,28.22
2022-07-28T10:35:18.086Z,27.98
2022-07-28T10:37:25.813Z,27.92
2022-07-28T10:39:33.056Z,27.06
2022-07-28T10:41:40.570Z,26.71
2022-07-28T10:43:45.512Z,26.59
2022-07-28T10:46:05.120Z,26.96
2022-07-28T10:48:08.554Z,26.97
2022-07-28T10:50:10.679Z,26.99
2022-07-28T10:52:45.866Z,27.06
2022-07-28T10:55:05.341Z,27.29
2022-07-28T10:57:10.951Z,27.66
2022-07-28T10:59:29.547Z,27.63
2022-07-28T11:01:49.228Z,27.75
2022-07-28T11:03:52.118Z,27.52
2022-07-28T11:05:54.449Z,27.60
2022-07-28T11:08:01.284Z,27.21
2022-07-28T11:10:16.943Z,27.15
2022-07-28T11:12:45.410Z,27.04
2022-07-28T11:14:47.437Z,27.31
2022-07-28T11:17:01.625Z,26.57
2022-07-28T11:19:07.913Z,27.04
2022-07-28T11:21:30.968Z,26.87
2022-07-28T11:23:47.646Z,26.90
2022-07-28T11:26:24.747Z,26.31
2022-07-28T11:28:26.644Z,26.35
2022-07-28T11:30:32.225Z,26.54
2022-07-28T11:32:55.554Z,25.83
2022-07-28T11:35:10.178Z,26.10
2022-07-28T11:37:15.081Z,26.32
2022-07-28T11:39:27.760Z,25.93
2022-07-28T11:41:34.704Z,26.09
2022-07-28T11:43:39.507Z,26.28
2022-07-28T11:45:47.290Z,25.76
2022-07-28T11:48:19.082Z,25.57
2022-07-28T11:50:21.101Z,25.63
2022-07-28T11:52:22.973Z,25.97
2022-07-28T11:54:25.392Z,25.49
2022-07-28T11:56:31.856Z,25.44
2022-07-28T11:58:34.198Z,25.59
2022-07-28T12:00:35.995Z,26.05
2022-07-28T12:02:41.001Z,26.00
2022-07-28T12:04:43.223Z,25.79
2022-07-28T12:06:51.562Z,25.92
2022-07-28T12:08:56.762Z,26.16
2022-07-28T12:10:58.819Z,25.83
2022-07-28T12:13:05.545Z,25.66
2022-07-28T12:15:08.192Z,25.62
2022-07-28T12:17:10.659Z,25.68
2022-07-28T12:19:16.701Z,25.28
2022-07-28T12:21:55.587Z,24.64
2022-07-28T12:23:57.455Z,24.99
2022-07-28T12:26:04.666Z,25.28
2022-07-28T12:28:20.194Z,25.09
2022-07-28T12:30:27.365Z,25.53
2022-07-28T12:32:36.402Z,25.48
2022-07-28T12:34:40.594Z,25.83
2022-07-28T12:36:42.807Z,26.11
2022-07-28T12:38:46.020Z,25.81
2022-07-28T12:40:48.191Z,26.22
2022-07-28T12:42:54.135Z,25.91
2022-07-28T12:45:04.762Z,26.33
2022-07-28T12:47:09.130Z,26.27
2022-07-28T12:49:21.642Z,26.08
2022-07-28T12:51:35.409Z,26.10
2022-07-28T12:53:51.192Z,26.42
2022-07-28T12:56:02.287Z,26.49
2022-07-28T12:58:05.092Z,26.25
2022-07-28T13:00:07.551Z,26.22
2022-07-28T13:02:09.555Z,26.46
2022-07-28T13:04:11.855Z,26.31
2022-07-28T13:06:15.706Z,26.53
2022-07-28T13:08:17.618Z,26.55
2022-07-28T13:10:22.517Z,26.28
2022-07-28T13:12:25.397Z,26.21
2022-07-28T13:14:44.608Z,25.92
2022-07-28T13:16:57.617Z,26.32
2022-07-28T13:19:05.716Z,26.44
2022-07-28T13:21:08.660Z,26.12
2022-07-28T13:23:10.356Z,26.29
2022-07-28T13:25:12.259Z,26.36
2022-07-28T13:27:14.279Z,26.33
2022-07-28T13:29:16.141Z,26.13
2022-07-28T13:31:18.138Z,26.33
2022-07-28T13:33:20.598Z,26.49
2022-07-28T13:35:23.214Z,26.44
2022-07-28T13:37:25.344Z,26.36
2022-07-28T13:39:27.618Z,26.40
2022-07-28T13:41:56.664Z,26.47
2022-07-28T13:43:51.320Z,26.38
2022-07-28T13:45:57.092Z,26.34
2022-07-28T13:48:03.553Z,26.23
2022-07-28T13:50:06.288Z,26.39
2022-07-28T13:52:12.886Z,26.42
2022-07-28T13:54:15.876Z,26.22
2022-07-28T13:56:17.956Z,26.18
2022-07-28T13:58:19.745Z,26.44
2022-07-28T14:00:25.259Z,26.04
2022-07-28T14:02:27.609Z,26.23
2022-07-28T14:04:29.503Z,26.03
2022-07-28T14:06:31.397Z,26.37
2022-07-28T14:08:33.281Z,25.87
2022-07-28T14:10:38.598Z,26.19
2022-07-28T14:12:40.535Z,26.28
2022-07-28T14:14:48.525Z,26.21
2022-07-28T14:16:52.143Z,25.64
2022-07-28T14:18:54.213Z,25.97
2022-07-28T14:20:56.074Z,26.18
2022-07-28T14:23:00.621Z,26.37
2022-07-28T14:25:02.500Z,25.96
2022-07-28T14:27:04.387Z,25.86
2022-07-28T14:29:11.498Z,25.85
2022-07-28T14:31:13.626Z,25.93
2022-07-28T14:33:16.513Z,25.95
2022-07-28T14:35:19.505Z,26.05
2022-07-28T14:37:21.376Z,26.44
2022-07-28T14:39:23.156Z,26.35
2022-07-28T14:41:26.080Z,25.81
2022-07-28T14:43:27.867Z,25.71
2022-07-28T14:45:29.925Z,26.03
2022-07-28T14:47:45.284Z,25.69
2022-07-28T14:49:57.951Z,25.86
2022-07-28T14:52:00.395Z,25.87
2022-07-28T14:54:02.662Z,25.73
2022-07-28T14:56:04.736Z,26.07
2022-07-28T14:58:06.574Z,25.84
2022-07-28T15:00:14.050Z,25.57
2022-07-28T15:02:16.338Z,26.05
2022-07-28T15:04:18.936Z,26.08
2022-07-28T15:06:20.902Z,25.68
2022-07-28T15:08:27.967Z,26.04
2022-07-28T15:10:31.358Z,26.00
2022-07-28T15:12:33.107Z,25.64
2022-07-28T15:14:35.279Z,25.53
2022-07-28T15:16:38.408Z,25.72
2022-07-28T15:18:41.958Z,25.87
2022-07-28T15:20:43.799Z,25.96
2022-07-28T15:22:46.098Z,25.84
2022-07-28T15:24:47.894Z,25.68
2022-07-28T15:26:49.817Z,25.57
2022-07-28T15:28:51.659Z,25.77
2022-07-28T15:30:54.619Z,25.55
2022-07-28T15:32:58.002Z,25.88
2022-07-28T15:35:01.909Z,25.69
2022-07-28T15:37:03.706Z,25.51
2022-07-28T15:39:08.990Z,25.48
2022-07-28T15:41:13.056Z,25.73
2022-07-28T15:43:14.862Z,25.67
2022-07-28T15:45:16.820Z,25.57
2022-07-28T15:47:18.607Z,25.57
2022-07-28T15:49:20.465Z,25.59
2022-07-28T15:51:25.770Z,25.79
2022-07-28T15:53:28.295Z,25.89
2022-07-28T15:55:30.079Z,25.48
2022-07-28T15:57:37.920Z,25.78
2022-07-28T15:59:49.414Z,25.64
2022-07-28T16:01:52.385Z,25.70
2022-07-28T16:03:55.146Z,25.57
2022-07-28T16:05:58.911Z,25.63
2022-07-28T16:08:00.871Z,25.68
2022-07-28T16:10:03.207Z,25.48
2022-07-28T16:12:05.742Z,25.74
2022-07-28T16:14:07.593Z,25.38
2022-07-28T16:16:11.469Z,25.67
2022-07-28T16:18:14.481Z,25.71
2022-07-28T16:20:17.781Z,25.72
2022-07-28T16:22:20.969Z,25.77
2022-07-28T16:24:22.840Z,25.56
2022-07-28T16:26:24.655Z,25.88
2022-07-28T16:28:29.136Z,25.41
2022-07-28T16:30:31.052Z,25.66
2022-07-28T16:32:33.012Z,25.58
2022-07-28T16:34:34.927Z,25.72
2022-07-28T16:36:38.201Z,25.95
2022-07-28T16:38:39.946Z,25.60
2022-07-28T16:40:41.901Z,25.78
2022-07-28T16:42:44.091Z,26.05
2022-07-28T16:44:47.503Z,26.02
2022-07-28T16:46:50.093Z,25.93
2022-07-28T16:48:52.149Z,26.13
2022-07-28T16:50:54.065Z,25.97
2022-07-28T16:52:56.684Z,25.67
2022-07-28T16:54:58.584Z,25.65
2022-07-28T16:57:00.802Z,26.08
2022-07-28T16:59:02.950Z,26.25
2022-07-28T17:01:05.430Z,25.86
2022-07-28T17:03:07.387Z,25.72
2022-07-28T17:05:13.824Z,26.17
2022-07-28T17:07:15.707Z,25.81
2022-07-28T17:09:17.562Z,25.95
2022-07-28T17:11:19.372Z,26.35
2022-07-28T17:13:22.511Z,25.85
2022-07-28T17:15:24.797Z,26.34
2022-07-28T17:17:27.028Z,26.28
2022-07-28T17:19:33.117Z,25.83
2022-07-28T17:21:36.037Z,25.95
2022-07-28T17:23:39.170Z,26.10
2022-07-28T17:26:04.920Z,26.24
2022-07-28T17:28:04.439Z,25.97
2022-07-28T17:30:07.680Z,26.02
2022-07-28T17:32:10.260Z,26.26
2022-07-28T17:34:12.366Z,25.94
2022-07-28T17:36:14.817Z,26.14
2022-07-28T17:38:21.490Z,26.49
2022-07-28T17:40:27.514Z,26.38
2022-07-28T17:42:29.770Z,26.74
2022-07-28T17:44:31.475Z,28.02
2022-07-28T17:46:37.904Z,27.97
2022-07-28T17:48:40.436Z,27.75
2022-07-28T17:50:43.431Z,27.47
2022-07-28T17:52:46.730Z,28.05
2022-07-28T17:55:07.023Z,27.25
2022-07-28T17:57:09.541Z,27.64
2022-07-28T17:59:13.022Z,27.02
2022-07-28T18:01:15.410Z,27.56
2022-07-28T18:03:18.364Z,27.63
2022-07-28T18:05:20.392Z,27.32
2022-07-28T18:07:22.284Z,27.70
2022-07-28T18:09:24.062Z,27.50
2022-07-28T18:11:27.765Z,27.36
2022-07-28T18:13:29.901Z,27.28
2022-07-28T18:15:32.298Z,27.13
2022-07-28T18:17:34.129Z,27.69
2022-07-28T18:19:35.945Z,27.64
2022-07-28T18:21:37.800Z,26.96
2022-07-28T18:23:44.988Z,27.39
2022-07-28T18:25:47.416Z,27.45
2022-07-28T18:27:49.365Z,27.80
2022-07-28T18:29:51.182Z,27.20
2022-07-28T18:31:53.372Z,27.99
2022-07-28T18:33:55.495Z,28.18
2022-07-28T18:35:57.608Z,27.92
2022-07-28T18:38:00.428Z,27.86
2022-07-28T18:40:04.118Z,28.10
2022-07-28T18:42:06.289Z,27.93
2022-07-28T18:44:08.084Z,27.70
2022-07-28T18:46:09.876Z,27.95
2022-07-28T18:48:11.878Z,28.27
2022-07-28T18:50:28.103Z,27.58
2022-07-28T18:52:35.156Z,27.77
2022-07-28T18:54:38.138Z,28.04
2022-07-28T18:56:39.890Z,28.20
2022-07-28T18:58:42.389Z,28.51
2022-07-28T19:00:45.051Z,28.84
2022-07-28T19:02:47.488Z,28.74
2022-07-28T19:04:49.297Z,29.04
2022-07-28T19:06:51.309Z,29.00
2022-07-28T19:08:53.117Z,29.05
2022-07-28T19:10:55.517Z,29.13
2022-07-28T19:12:57.694Z,28.77
2022-07-28T19:14:59.895Z,29.40
2022-07-28T19:17:04.003Z,29.38
2022-07-28T19:19:05.802Z,29.65
2022-07-28T19:21:08.983Z,29.82
2022-07-28T19:23:11.069Z,30.19
2022-07-28T19:25:12.901Z,30.04
2022-07-28T19:27:14.982Z,29.83
2022-07-28T19:29:16.786Z,30.46
2022-07-28T19:31:20.404Z,30.00
2022-07-28T19:33:22.230Z,30.78
2022-07-28T19:35:26.386Z,30.04
2022-07-28T19:37:28.331Z,30.46
2022-07-28T19:39:34.120Z,30.24
2022-07-28T19:41:36.005Z,30.93
2022-07-28T19:43:38.240Z,30.87
2022-07-28T19:45:40.310Z,30.81
2022-07-28T19:47:42.698Z,30.92
2022-07-28T19:49:44.610Z,30.72
2022-07-28T19:51:46.385Z,31.17
2022-07-28T19:53:48.576Z,30.88
2022-07-28T19:55:51.375Z,31.01
2022-07-28T19:57:59.096Z,30.91
2022-07-28T20:00:04.679Z,30.79
2022-07-28T20:02:14.334Z,31.33
2022-07-28T20:04:16.678Z,31.20
2022-07-28T20:06:18.700Z,31.50
2022-07-28T20:08:26.962Z,31.93
2022-07-28T20:10:28.885Z,31.62
2022-07-28T20:12:36.190Z,31.51
2022-07-28T20:14:38.729Z,31.88
2022-07-28T20:16:40.573Z,31.66
2022-07-28T20:18:42.608Z,31.63
2022-07-28T20:20:44.328Z,31.89
2022-07-28T20:22:47.671Z,31.64
2022-07-28T20:24:49.801Z,32.08
2022-07-28T20:26:51.751Z,31.83
2022-07-28T20:28:58.515Z,32.24
2022-07-28T20:31:00.504Z,32.06
2022-07-28T20:33:02.340Z,32.21
2022-07-28T20:35:08.713Z,32.05
2022-07-28T20:37:31.346Z,31.68
2022-07-28T20:39:44.515Z,32.25
2022-07-28T20:41:48.717Z,31.95
2022-07-28T20:44:11.392Z,32.25
2022-07-28T20:46:12.475Z,32.22
2022-07-28T20:48:14.491Z,32.15
2022-07-28T20:50:17.728Z,32.28
2022-07-28T20:52:19.447Z,32.56
2022-07-28T20:54:22.320Z,32.99
2022-07-28T20:56:24.179Z,32.76
2022-07-28T20:58:26.642Z,33.02
2022-07-28T21:00:28.879Z,33.32
2022-07-28T21:02:30.882Z,32.72
2022-07-28T21:04:32.779Z,32.60
2022-07-28T21:06:35.170Z,33.05
2022-07-28T21:08:39.721Z,32.97
2022-07-28T21:10:44.257Z,33.05
2022-07-28T21:12:46.087Z,33.30
2022-07-28T21:14:48.581Z,33.52
2022-07-28T21:16:51.304Z,33.05
2022-07-28T21:18:53.197Z,33.25
2022-07-28T21:20:55.223Z,33.14
2022-07-28T21:22:57.019Z,32.91
2022-07-28T21:24:59.246Z,32.66
2022-07-28T21:27:01.009Z,33.23
2022-07-28T21:29:12.642Z,33.36
2022-07-28T21:31:14.651Z,33.29
2022-07-28T21:33:22.272Z,34.17
2022-07-28T21:35:25.513Z,35.77
2022-07-28T21:37:27.341Z,35.77
2022-07-28T21:39:29.369Z,37.17
2022-07-28T21:41:36.874Z,37.05
2022-07-28T21:43:39.255Z,36.68
2022-07-28T21:45:41.101Z,36.67
2022-07-28T21:47:43.049Z,36.18
2022-07-28T21:49:44.805Z,35.95
2022-07-28T21:51:47.019Z,36.17
2022-07-28T21:53:50.591Z,35.75
2022-07-28T21:55:57.108Z,35.96
2022-07-28T21:57:59.205Z,35.68
2022-07-28T22:00:01.647Z,35.12
2022-07-28T22:02:03.941Z,34.76
2022-07-28T22:04:05.708Z,34.51
2022-07-28T22:06:07.956Z,34.67
2022-07-28T22:08:09.787Z,34.67
2022-07-28T22:10:12.149Z,34.87
2022-07-28T22:12:14.595Z,34.92
2022-07-28T22:14:17.032Z,34.72
2022-07-28T22:16:19.416Z,34.81
2022-07-28T22:18:21.461Z,34.86
2022-07-28T22:20:23.414Z,34.85
2022-07-28T22:22:25.419Z,35.49
2022-07-28T22:24:27.194Z,35.16
2022-07-28T22:26:29.414Z,34.84
2022-07-28T22:28:31.281Z,34.93
2022-07-28T22:30:33.542Z,34.55
2022-07-28T22:32:35.420Z,34.71
2022-07-28T22:34:37.457Z,34.15
2022-07-28T22:36:39.525Z,34.71
2022-07-28T22:38:41.385Z,34.46
2022-07-28T22:40:43.227Z,34.94
2022-07-28T22:42:45.710Z,34.48
2022-07-28T22:44:47.535Z,34.77
2022-07-28T22:46:49.622Z,34.71
2022-07-28T22:48:51.567Z,34.78
2022-07-28T22:50:53.403Z,34.93
2022-07-28T22:52:55.168Z,34.97
2022-07-28T22:54:57.417Z,35.58
2022-07-28T22:56:59.606Z,35.45
2022-07-28T22:59:01.368Z,35.62
2022-07-28T23:01:03.949Z,35.90
2022-07-28T23:03:09.980Z,35.47
2022-07-28T23:05:16.327Z,35.64
2022-07-28T23:07:18.156Z,35.76
2022-07-28T23:09:20.163Z,36.10
2022-07-28T23:11:21.944Z,36.08
2022-07-28T23:13:24.131Z,36.29
2022-07-28T23:15:41.134Z,36.16
2022-07-28T23:17:43.511Z,36.07
2022-07-28T23:19:45.277Z,35.98
2022-07-28T23:21:47.179Z,36.17
2022-07-28T23:23:49.496Z,36.05
2022-07-28T23:25:51.390Z,36.01
2022-07-28T23:27:53.240Z,35.78
2022-07-28T23:29:55.117Z,35.80
2022-07-28T23:31:56.908Z,36.15
2022-07-28T23:33:58.874Z,36.74
2022-07-28T23:36:00.626Z,38.23
2022-07-28T23:38:02.891Z,38.13
2022-07-28T23:40:05.154Z,38.85
2022-07-28T23:42:07.259Z,40.33
2022-07-28T23:44:09.330Z,40.12
2022-07-28T23:46:11.311Z,41.39
2022-07-28T23:48:13.167Z,40.76
2022-07-28T23:50:15.093Z,40.98
2022-07-28T23:52:16.804Z,40.40
2022-07-28T23:54:18.990Z,41.01
2022-07-28T23:56:20.838Z,41.69
2022-07-28T23:58:22.657Z,42.85
